Time;durP1;ratioP1;P1;durP2;ratioP2;P2;SDS_P1;SDS_P2;PMS_P1;PMS_P2;Temp;Humidity;BMP_temperature;BMP_pressure;BME280_temperature;BME280_humidity;BME280_pressure;Samples;Min_cycle;Max_cycle;Signal;HPM_P1;HPM_P2
2021/10/24 00:01:13;;;;;;;10.10;4.78;;;22.50;99.90;;;;;;5075217;28;20146;-70
2021/10/24 00:03:40;;;;;;;14.52;5.68;;;22.50;99.90;;;;;;5075093;28;20045;-71
2021/10/24 00:06:08;;;;;;;8.98;4.45;;;22.30;99.90;;;;;;5075163;28;20024;-72
2021/10/24 00:08:35;;;;;;;11.52;4.57;;;22.30;99.90;;;;;;5075086;28;20103;-70
2021/10/24 00:11:02;;;;;;;15.32;5.53;;;21.60;99.90;;;;;;5073778;28;20054;-70
2021/10/24 00:13:30;;;;;;;12.68;5.35;;;21.30;99.90;;;;;;5075199;28;20024;-70
2021/10/24 00:15:58;;;;;;;14.07;5.07;;;21.10;99.90;;;;;;5074971;28;20047;-69
2021/10/24 00:18:26;;;;;;;13.77;5.15;;;21.00;99.90;;;;;;5074686;28;20049;-70
2021/10/24 00:20:54;;;;;;;17.83;5.68;;;20.50;99.90;;;;;;5074869;28;20432;-70
2021/10/24 00:23:21;;;;;;;11.15;4.45;;;20.70;99.90;;;;;;5074665;28;20017;-71
2021/10/24 00:25:50;;;;;;;13.15;4.53;;;21.60;99.90;;;;;;5073558;28;20493;-70
2021/10/24 00:28:17;;;;;;;13.18;4.82;;;22.40;99.90;;;;;;5074723;28;20013;-70
2021/10/24 00:30:44;;;;;;;12.65;5.00;;;23.10;99.90;;;;;;5073269;28;20052;-72
2021/10/24 00:33:12;;;;;;;11.25;4.10;;;23.30;99.90;;;;;;5074600;28;20029;-70
2021/10/24 00:35:39;;;;;;;12.73;4.15;;;24.10;99.90;;;;;;5074664;28;20043;-70
2021/10/24 00:38:07;;;;;;;11.50;4.30;;;23.10;99.90;;;;;;5074467;28;20024;-70
2021/10/24 00:40:34;;;;;;;13.15;4.00;;;22.40;99.90;;;;;;5074426;28;20103;-70
2021/10/24 00:43:02;;;;;;;13.32;4.45;;;21.90;99.90;;;;;;5073028;28;20029;-70
2021/10/24 00:45:29;;;;;;;11.07;4.38;;;21.80;99.90;;;;;;5074329;28;20017;-70
2021/10/24 00:47:57;;;;;;;10.77;4.22;;;21.90;99.90;;;;;;5074329;28;20025;-70
2021/10/24 00:50:25;;;;;;;11.50;4.63;;;21.90;99.90;;;;;;5074296;28;20031;-70
2021/10/24 00:52:53;;;;;;;14.65;4.65;;;22.30;99.90;;;;;;5071970;28;20024;-70
2021/10/24 00:55:23;;;;;;;12.90;5.13;;;22.80;99.90;;;;;;5074183;28;20488;-71
2021/10/24 00:57:51;;;;;;;12.17;4.30;;;22.40;99.90;;;;;;5072749;28;20374;-72
2021/10/24 01:00:19;;;;;;;10.93;4.53;;;22.50;99.90;;;;;;5073978;28;20258;-71
2021/10/24 01:02:47;;;;;;;13.13;4.22;;;22.50;99.90;;;;;;5073824;28;20046;-72
2021/10/24 01:05:15;;;;;;;10.30;4.10;;;22.00;99.90;;;;;;5073787;28;20013;-72
2021/10/24 01:07:45;;;;;;;10.38;4.22;;;21.80;99.90;;;;;;5073861;28;20116;-71
2021/10/24 01:10:16;;;;;;;11.50;4.20;;;22.20;99.90;;;;;;5073882;28;20024;-70
2021/10/24 01:12:46;;;;;;;8.00;3.90;;;23.00;99.90;;;;;;5073738;28;20024;-71
2021/10/24 01:15:14;;;;;;;10.30;4.00;;;23.20;99.50;;;;;;5073605;28;20418;-71
2021/10/24 01:17:41;;;;;;;8.15;3.75;;;23.70;99.50;;;;;;5072103;28;20119;-72
2021/10/24 01:20:14;;;;;;;9.77;4.10;;;23.90;99.60;;;;;;5072412;28;20031;-71
2021/10/24 01:22:42;;;;;;;11.13;4.00;;;24.10;98.20;;;;;;5072286;28;20071;-71
2021/10/24 01:25:10;;;;;;;11.73;4.97;;;24.00;99.20;;;;;;5073592;28;20095;-70
2021/10/24 01:27:38;;;;;;;10.85;4.20;;;24.30;98.50;;;;;;5073555;28;20422;-70
2021/10/24 01:30:07;;;;;;;10.15;4.05;;;23.20;99.10;;;;;;5073496;28;20414;-71
2021/10/24 01:32:35;;;;;;;9.20;3.75;;;22.60;99.90;;;;;;5073452;28;20020;-71
2021/10/24 01:35:04;;;;;;;9.85;3.97;;;22.20;99.90;;;;;;5073459;28;20385;-71
2021/10/24 01:37:37;;;;;;;9.35;4.20;;;22.70;99.90;;;;;;5072048;28;20028;-70
2021/10/24 01:40:08;;;;;;;9.98;4.07;;;23.20;99.30;;;;;;5073217;28;20023;-71
2021/10/24 01:42:45;;;;;;;11.77;4.60;;;23.40;99.90;;;;;;5073102;28;20020;-72
2021/10/24 01:45:13;;;;;;;10.10;4.03;;;23.40;99.60;;;;;;5073160;28;20066;-73
2021/10/24 01:47:40;;;;;;;7.93;4.28;;;23.40;99.50;;;;;;5073197;28;20021;-73
2021/10/24 01:50:08;;;;;;;11.60;4.47;;;23.70;99.90;;;;;;5073296;28;20086;-72
2021/10/24 01:52:44;;;;;;;13.23;4.75;;;24.30;98.20;;;;;;5073197;28;20130;-72
2021/10/24 01:55:13;;;;;;;10.63;4.95;;;24.00;98.60;;;;;;5071892;28;20029;-73
2021/10/24 01:57:46;;;;;;;7.63;3.80;;;24.00;99.10;;;;;;5071678;28;20066;-71
2021/10/24 02:00:15;;;;;;;11.00;4.50;;;23.70;97.80;;;;;;5073114;28;20024;-73
2021/10/24 02:02:43;;;;;;;8.25;4.03;;;23.60;99.10;;;;;;5071687;28;20050;-72
2021/10/24 02:05:10;;;;;;;11.73;3.92;;;23.50;98.50;;;;;;5072922;28;20025;-73
2021/10/24 02:07:38;;;;;;;9.25;3.67;;;23.70;98.00;;;;;;5073197;28;20024;-73
2021/10/24 02:10:09;;;;;;;9.88;4.25;;;23.90;98.00;;;;;;5072978;28;20395;-73
2021/10/24 02:12:37;;;;;;;8.68;4.57;;;23.40;98.60;;;;;;5071702;28;20378;-72
2021/10/24 02:15:06;;;;;;;9.00;4.22;;;23.20;98.60;;;;;;5072731;28;20033;-72
2021/10/24 02:17:34;;;;;;;10.02;4.20;;;23.40;99.50;;;;;;5072587;28;20044;-72
2021/10/24 02:20:03;;;;;;;11.13;4.50;;;23.80;98.40;;;;;;5072951;28;20052;-72
2021/10/24 02:22:31;;;;;;;10.82;3.60;;;23.80;98.50;;;;;;5071489;28;20028;-71
2021/10/24 02:24:59;;;;;;;10.10;4.32;;;23.80;98.10;;;;;;5071539;28;20032;-72
2021/10/24 02:27:26;;;;;;;9.35;3.80;;;23.60;98.60;;;;;;5072774;28;20031;-73
2021/10/24 02:29:54;;;;;;;8.65;3.80;;;24.10;97.70;;;;;;5071426;28;20492;-72
2021/10/24 02:32:21;;;;;;;11.90;4.00;;;24.10;97.20;;;;;;5071508;28;20029;-72
2021/10/24 02:34:49;;;;;;;11.63;3.88;;;24.10;98.00;;;;;;5071469;28;20020;-72
2021/10/24 02:37:16;;;;;;;10.43;3.42;;;24.10;97.70;;;;;;5072910;28;20495;-73
2021/10/24 02:39:44;;;;;;;10.57;4.35;;;24.20;98.40;;;;;;5072724;28;20032;-72
2021/10/24 02:42:12;;;;;;;9.75;4.20;;;24.20;97.40;;;;;;5071251;28;20025;-72
2021/10/24 02:44:39;;;;;;;10.50;3.97;;;24.20;96.10;;;;;;5072732;28;20381;-72
2021/10/24 02:47:06;;;;;;;8.80;3.78;;;24.30;95.80;;;;;;5072739;28;20088;-72
2021/10/24 02:49:34;;;;;;;6.47;3.90;;;24.00;95.30;;;;;;5072733;28;20021;-72
2021/10/24 02:52:01;;;;;;;8.82;4.35;;;24.00;95.90;;;;;;5071228;28;20119;-72
2021/10/24 02:54:29;;;;;;;8.27;3.60;;;24.20;95.80;;;;;;5072559;28;20100;-72
2021/10/24 02:56:57;;;;;;;9.43;4.13;;;24.50;95.40;;;;;;5072584;28;20063;-72
2021/10/24 02:59:24;;;;;;;9.38;4.22;;;24.20;95.20;;;;;;5072587;28;20031;-71
2021/10/24 03:01:51;;;;;;;10.60;4.68;;;24.10;95.60;;;;;;5071108;28;20039;-73
2021/10/24 03:04:19;;;;;;;10.43;3.92;;;24.40;96.90;;;;;;5072461;28;20024;-73
2021/10/24 03:06:47;;;;;;;9.65;3.90;;;24.30;95.80;;;;;;5072473;28;20021;-72
2021/10/24 03:09:14;;;;;;;7.57;3.45;;;23.90;96.40;;;;;;5072415;28;20021;-73
2021/10/24 03:11:41;;;;;;;13.57;4.13;;;24.00;95.60;;;;;;5072386;28;20025;-74
2021/10/24 03:14:09;;;;;;;8.45;4.07;;;23.70;96.00;;;;;;5072453;28;20398;-72
2021/10/24 03:16:36;;;;;;;10.02;3.90;;;24.00;96.00;;;;;;5074942;28;20141;-72
2021/10/24 03:19:04;;;;;;;9.68;4.47;;;24.00;95.70;;;;;;5076096;28;20077;-72
2021/10/24 03:21:31;;;;;;;11.15;4.55;;;23.20;97.10;;;;;;5074431;28;20078;-73
2021/10/24 03:24:01;;;;;;;9.80;4.30;;;23.00;97.70;;;;;;5075791;28;20025;-71
2021/10/24 03:26:29;;;;;;;12.05;4.32;;;22.50;97.20;;;;;;5076004;28;20020;-74
2021/10/24 03:28:56;;;;;;;10.77;4.63;;;22.50;97.80;;;;;;5074463;28;20060;-72
2021/10/24 03:31:24;;;;;;;12.35;4.68;;;22.20;97.50;;;;;;5075789;28;20070;-72
2021/10/24 03:33:51;;;;;;;9.25;4.40;;;22.20;97.40;;;;;;5075745;28;20020;-72
2021/10/24 03:36:19;;;;;;;9.68;4.45;;;22.50;97.30;;;;;;5075701;28;20028;-72
2021/10/24 03:38:46;;;;;;;8.32;4.25;;;23.20;97.00;;;;;;5075634;28;20481;-72
2021/10/24 03:41:15;;;;;;;6.55;4.15;;;23.50;96.50;;;;;;5075604;28;20020;-72
2021/10/24 03:43:42;;;;;;;9.15;4.15;;;23.90;95.40;;;;;;5057760;28;20028;-72
2021/10/24 03:46:10;;;;;;;7.07;3.38;;;23.70;95.80;;;;;;5075538;28;20017;-73
2021/10/24 03:48:38;;;;;;;9.00;3.60;;;24.00;95.60;;;;;;5075402;28;20024;-73
2021/10/24 03:51:05;;;;;;;7.72;3.53;;;23.90;95.00;;;;;;5075687;28;20021;-72
2021/10/24 03:53:32;;;;;;;7.43;3.63;;;23.90;95.80;;;;;;5075333;28;20025;-72
2021/10/24 03:56:00;;;;;;;7.93;3.70;;;23.90;95.40;;;;;;5074130;28;20078;-72
2021/10/24 03:58:27;;;;;;;7.95;3.53;;;23.60;95.00;;;;;;5075244;28;20032;-72
2021/10/24 04:00:54;;;;;;;8.50;3.40;;;23.40;95.50;;;;;;5073868;28;20036;-72
2021/10/24 04:03:22;;;;;;;9.25;3.70;;;23.60;95.70;;;;;;5073928;28;20424;-71
2021/10/24 04:05:50;;;;;;;13.30;4.50;;;23.70;95.50;;;;;;5075127;28;20086;-72
2021/10/24 04:08:18;;;;;;;6.63;4.25;;;24.00;95.60;;;;;;5075177;28;20055;-72
2021/10/24 04:10:45;;;;;;;12.32;4.70;;;23.90;95.10;;;;;;5075029;28;20474;-70
2021/10/24 04:13:13;;;;;;;6.40;4.07;;;23.70;98.20;;;;;;5073700;28;20021;-70
2021/10/24 04:15:41;;;;;;;7.18;3.90;;;23.70;98.30;;;;;;5074983;28;20025;-71
2021/10/24 04:18:09;;;;;;;6.50;3.72;;;23.70;98.70;;;;;;5073462;28;20083;-72
2021/10/24 04:20:36;;;;;;;6.05;3.70;;;23.90;97.80;;;;;;5074864;28;20445;-71
2021/10/24 04:23:04;;;;;;;8.98;4.00;;;23.80;97.70;;;;;;5073497;28;20485;-71
2021/10/24 04:25:32;;;;;;;8.25;3.88;;;23.80;97.90;;;;;;5074762;28;20046;-70
2021/10/24 04:27:59;;;;;;;7.90;3.70;;;23.90;97.70;;;;;;5074613;28;20382;-71
2021/10/24 04:30:27;;;;;;;7.25;3.40;;;23.70;98.20;;;;;;5074725;28;20477;-71
2021/10/24 04:32:54;;;;;;;6.97;3.50;;;24.00;97.20;;;;;;5073423;28;20157;-72
2021/10/24 04:35:22;;;;;;;8.60;3.90;;;23.90;97.70;;;;;;5073467;28;20058;-72
2021/10/24 04:37:49;;;;;;;9.13;3.72;;;24.00;97.60;;;;;;5074588;28;20025;-72
2021/10/24 04:40:17;;;;;;;11.10;4.20;;;24.10;97.40;;;;;;5073247;28;20115;-71
2021/10/24 04:42:44;;;;;;;10.65;4.00;;;24.40;96.80;;;;;;5074501;28;20385;-72
2021/10/24 04:45:11;;;;;;;9.20;4.40;;;24.60;96.90;;;;;;5074416;28;20012;-72
2021/10/24 04:47:39;;;;;;;7.95;4.00;;;24.40;96.50;;;;;;5074247;28;20027;-72
2021/10/24 04:50:08;;;;;;;8.50;4.60;;;24.60;96.60;;;;;;5074298;28;20024;-73
2021/10/24 04:52:37;;;;;;;7.45;3.70;;;24.30;96.50;;;;;;5074142;28;20078;-72
2021/10/24 04:55:06;;;;;;;7.38;3.85;;;24.00;96.20;;;;;;5074150;28;20052;-72
2021/10/24 04:57:34;;;;;;;7.53;3.75;;;23.70;96.80;;;;;;5074181;28;20025;-71
2021/10/24 05:00:03;;;;;;;7.43;4.43;;;23.70;96.90;;;;;;5074048;28;20024;-71
2021/10/24 05:02:30;;;;;;;8.60;4.30;;;23.40;96.70;;;;;;5073968;28;20032;-71
2021/10/24 05:04:58;;;;;;;8.82;4.15;;;23.60;97.00;;;;;;5072495;28;20489;-72
2021/10/24 05:07:25;;;;;;;6.97;4.20;;;23.60;97.20;;;;;;5073912;28;20074;-72
2021/10/24 05:09:53;;;;;;;9.00;4.00;;;23.80;96.60;;;;;;5072601;28;20120;-71
2021/10/24 05:12:20;;;;;;;8.43;3.75;;;23.70;96.10;;;;;;5073839;28;20059;-71
2021/10/24 05:14:47;;;;;;;7.35;4.00;;;23.40;96.70;;;;;;5072418;28;20035;-71
2021/10/24 05:17:15;;;;;;;8.73;4.18;;;23.50;96.40;;;;;;5073597;28;20045;-71
2021/10/24 05:19:42;;;;;;;9.45;4.00;;;23.50;96.70;;;;;;5073839;28;20032;-72
2021/10/24 05:22:09;;;;;;;9.07;4.57;;;23.50;96.40;;;;;;5072023;28;20029;-71
2021/10/24 05:24:37;;;;;;;6.75;4.13;;;23.50;96.80;;;;;;5073517;28;20024;-71
2021/10/24 05:27:07;;;;;;;7.20;4.50;;;23.30;96.50;;;;;;5072111;28;20045;-72
2021/10/24 05:29:34;;;;;;;8.05;4.15;;;23.50;96.50;;;;;;5073502;28;20032;-71
2021/10/24 05:32:02;;;;;;;7.25;3.95;;;23.60;96.00;;;;;;5071850;28;20078;-71
2021/10/24 05:34:29;;;;;;;6.28;3.92;;;23.70;95.90;;;;;;5071805;28;20021;-71
2021/10/24 05:36:56;;;;;;;6.35;4.50;;;23.70;96.30;;;;;;5071765;28;20500;-72
2021/10/24 05:39:24;;;;;;;8.50;4.70;;;23.70;96.10;;;;;;5071322;28;20082;-71
2021/10/24 05:41:51;;;;;;;7.13;4.00;;;23.70;96.50;;;;;;5072833;28;20063;-71
2021/10/24 05:44:21;;;;;;;5.93;3.78;;;23.80;95.60;;;;;;5072873;28;20155;-70
2021/10/24 05:46:49;;;;;;;6.90;3.70;;;23.90;95.20;;;;;;5071441;28;20550;-71
2021/10/24 05:49:17;;;;;;;6.90;3.90;;;23.60;95.50;;;;;;5072845;28;20024;-70
2021/10/24 05:51:44;;;;;;;8.68;3.63;;;23.50;96.50;;;;;;5072854;28;20116;-73
2021/10/24 05:54:12;;;;;;;4.25;3.50;;;23.40;96.70;;;;;;5072880;28;20024;-73
2021/10/24 05:56:39;;;;;;;7.72;3.22;;;23.90;95.80;;;;;;5072824;28;20047;-73
2021/10/24 05:59:06;;;;;;;5.85;3.80;;;23.90;96.10;;;;;;5071550;28;20036;-73
2021/10/24 06:01:34;;;;;;;7.32;3.47;;;23.70;95.60;;;;;;5072573;28;20017;-72
2021/10/24 06:04:01;;;;;;;6.80;3.40;;;23.90;95.20;;;;;;5072785;28;20023;-71
2021/10/24 06:06:28;;;;;;;5.97;3.50;;;24.10;95.50;;;;;;5072760;28;20017;-72
2021/10/24 06:08:58;;;;;;;5.05;3.33;;;23.70;95.40;;;;;;5072618;28;20150;-72
2021/10/24 06:11:34;;;;;;;7.15;3.55;;;23.90;95.50;;;;;;5072613;28;20021;-70
2021/10/24 06:14:01;;;;;;;5.03;3.45;;;23.70;94.90;;;;;;5072964;28;20027;-72
2021/10/24 06:16:29;;;;;;;7.50;3.78;;;23.70;95.10;;;;;;5071173;28;20028;-71
2021/10/24 06:18:56;;;;;;;6.95;3.90;;;23.20;95.80;;;;;;5072423;28;20311;-71
2021/10/24 06:21:23;;;;;;;6.22;3.60;;;22.80;96.00;;;;;;5071208;28;20021;-71
2021/10/24 06:23:51;;;;;;;8.43;4.57;;;22.80;96.70;;;;;;5072758;28;20501;-71
2021/10/24 06:26:18;;;;;;;5.47;3.70;;;22.90;96.30;;;;;;5072764;28;20444;-71
2021/10/24 06:28:45;;;;;;;6.35;3.80;;;23.00;96.30;;;;;;5072766;28;20028;-72
2021/10/24 06:31:13;;;;;;;4.15;3.70;;;22.90;96.60;;;;;;5071575;28;20451;-72
2021/10/24 06:33:40;;;;;;;6.40;3.50;;;22.30;96.90;;;;;;5071413;28;20032;-72
2021/10/24 06:36:07;;;;;;;4.95;3.50;;;21.80;97.60;;;;;;5072855;28;20074;-72
2021/10/24 06:38:35;;;;;;;6.55;3.40;;;21.20;98.20;;;;;;5072828;28;20473;-72
2021/10/24 06:41:02;;;;;;;5.15;3.05;;;21.20;98.60;;;;;;5072641;28;20500;-72
2021/10/24 06:43:29;;;;;;;3.75;3.15;;;21.70;97.50;;;;;;5071485;28;20116;-72
2021/10/24 06:45:57;;;;;;;5.65;3.40;;;22.40;96.70;;;;;;5072748;28;20016;-71
2021/10/24 06:48:24;;;;;;;7.90;3.25;;;22.80;95.90;;;;;;5072615;28;20055;-74
2021/10/24 06:50:51;;;;;;;6.03;3.33;;;22.30;96.80;;;;;;5074369;28;20547;-73
2021/10/24 06:53:19;;;;;;;6.22;3.33;;;21.40;96.80;;;;;;5076590;28;20021;-70
2021/10/24 06:55:46;;;;;;;5.38;3.70;;;21.00;98.10;;;;;;5076470;28;20489;-70
2021/10/24 06:58:13;;;;;;;6.50;3.83;;;20.50;98.00;;;;;;5075124;28;20024;-71
2021/10/24 07:00:42;;;;;;;5.28;3.80;;;20.20;99.40;;;;;;5076183;28;20021;-71
2021/10/24 07:03:10;;;;;;;8.70;4.15;;;20.00;99.10;;;;;;5076058;28;20070;-72
2021/10/24 07:05:37;;;;;;;6.15;4.20;;;19.90;99.90;;;;;;5075114;28;20103;-73
2021/10/24 07:08:06;;;;;;;11.80;4.60;;;19.90;99.90;;;;;;5076047;28;20381;-72
2021/10/24 07:10:34;;;;;;;8.02;4.35;;;19.90;99.90;;;;;;5076013;28;20021;-71
2021/10/24 07:13:01;;;;;;;5.30;3.65;;;19.80;99.70;;;;;;5074649;28;20047;-72
2021/10/24 07:15:28;;;;;;;4.00;3.60;;;19.80;99.90;;;;;;5076015;28;20021;-73
2021/10/24 07:17:56;;;;;;;7.82;4.07;;;19.70;99.90;;;;;;5075770;28;20094;-73
2021/10/24 07:20:23;;;;;;;8.63;3.83;;;19.60;99.90;;;;;;5075858;28;20021;-73
2021/10/24 07:22:52;;;;;;;8.02;3.85;;;19.50;99.90;;;;;;5075921;28;20451;-72
2021/10/24 07:25:19;;;;;;;6.82;4.20;;;19.30;99.90;;;;;;5074720;28;20029;-73
2021/10/24 07:27:47;;;;;;;5.95;4.13;;;19.20;99.90;;;;;;5075626;28;20052;-73
2021/10/24 07:30:14;;;;;;;4.90;3.78;;;19.10;99.90;;;;;;5074431;28;20021;-72
2021/10/24 07:32:43;;;;;;;6.38;4.13;;;19.10;99.90;;;;;;5074436;28;20103;-72
2021/10/24 07:35:11;;;;;;;8.23;4.22;;;19.00;99.90;;;;;;5074413;28;20059;-73
2021/10/24 07:37:39;;;;;;;7.43;4.00;;;18.90;99.90;;;;;;5075750;28;20063;-73
2021/10/24 07:40:08;;;;;;;6.00;3.97;;;18.70;99.90;;;;;;5074319;28;20028;-73
2021/10/24 07:42:36;;;;;;;7.10;3.65;;;18.80;99.90;;;;;;5075534;28;20072;-72
2021/10/24 07:45:04;;;;;;;6.85;3.85;;;18.60;99.90;;;;;;5074332;28;20474;-72
2021/10/24 07:47:31;;;;;;;5.45;3.58;;;18.50;99.90;;;;;;5075551;28;20095;-74
2021/10/24 07:50:03;;;;;;;4.95;3.70;;;18.60;99.90;;;;;;5074190;28;20027;-73
2021/10/24 07:52:31;;;;;;;8.45;3.75;;;18.60;99.90;;;;;;5074159;28;20047;-73
2021/10/24 07:54:58;;;;;;;5.85;3.60;;;18.60;99.90;;;;;;5075324;28;20105;-72
2021/10/24 07:57:26;;;;;;;4.82;3.33;;;18.50;99.90;;;;;;5075307;28;20029;-73
2021/10/24 07:59:53;;;;;;;7.28;4.75;;;18.40;99.90;;;;;;5075364;28;20044;-72
2021/10/24 08:02:20;;;;;;;4.55;3.50;;;18.30;99.90;;;;;;5074675;28;20025;-71
2021/10/24 08:04:49;;;;;;;7.03;4.65;;;18.20;99.90;;;;;;5073592;28;20050;-71
2021/10/24 08:07:17;;;;;;;6.13;4.35;;;18.20;99.90;;;;;;5074962;28;20074;-72
2021/10/24 08:09:45;;;;;;;5.25;4.25;;;18.10;99.90;;;;;;5073877;28;20059;-71
2021/10/24 08:12:13;;;;;;;7.38;4.28;;;18.10;99.90;;;;;;5075135;28;20331;-71
2021/10/24 08:14:40;;;;;;;5.80;3.80;;;18.00;99.90;;;;;;5073690;28;20544;-70
2021/10/24 08:17:08;;;;;;;6.65;4.63;;;17.90;99.90;;;;;;5074855;28;20066;-70
2021/10/24 08:19:36;;;;;;;4.38;3.70;;;17.80;99.90;;;;;;5073670;28;20094;-70
2021/10/24 08:22:06;;;;;;;4.68;4.20;;;17.70;99.90;;;;;;5074738;28;20485;-70
2021/10/24 08:24:34;;;;;;;8.93;3.80;;;17.60;99.90;;;;;;5074898;28;20012;-71
2021/10/24 08:27:01;;;;;;;10.10;4.10;;;17.60;99.90;;;;;;5073368;28;20362;-71
2021/10/24 08:29:28;;;;;;;7.75;3.90;;;17.60;99.90;;;;;;5074673;28;20019;-72
2021/10/24 08:31:57;;;;;;;7.65;3.75;;;17.50;99.90;;;;;;5073390;28;20028;-72
2021/10/24 08:34:24;;;;;;;7.72;4.07;;;17.50;99.90;;;;;;5073387;28;20032;-71
2021/10/24 08:36:52;;;;;;;6.70;3.47;;;17.50;99.90;;;;;;5073361;28;20029;-72
2021/10/24 08:39:19;;;;;;;7.78;3.60;;;17.60;99.90;;;;;;5074712;28;20035;-72
2021/10/24 08:41:49;;;;;;;7.95;3.10;;;17.60;99.90;;;;;;5074486;28;20511;-73
2021/10/24 08:44:17;;;;;;;7.80;3.83;;;17.60;99.90;;;;;;5074527;28;20024;-70
2021/10/24 08:46:45;;;;;;;5.28;3.50;;;17.60;99.90;;;;;;5074512;28;20040;-71
2021/10/24 08:49:13;;;;;;;5.53;3.67;;;17.60;99.90;;;;;;5073101;28;20021;-71
2021/10/24 08:51:41;;;;;;;5.88;3.60;;;17.70;99.90;;;;;;5073168;28;20024;-72
2021/10/24 08:54:10;;;;;;;6.50;3.58;;;17.70;99.90;;;;;;5073320;28;20025;-72
2021/10/24 08:56:38;;;;;;;5.95;3.20;;;17.70;99.90;;;;;;5073031;28;20024;-72
2021/10/24 08:59:06;;;;;;;13.18;3.97;;;17.70;99.90;;;;;;5072917;28;20418;-72
2021/10/24 09:01:49;;;;;;;4.20;3.72;;;17.70;99.90;;;;;;5074261;28;20020;-72
2021/10/24 09:04:17;;;;;;;5.13;3.80;;;17.70;99.90;;;;;;5073935;28;20031;-72
2021/10/24 09:06:58;;;;;;;4.55;3.80;;;17.80;99.90;;;;;;5072806;28;20021;-72
2021/10/24 09:09:29;;;;;;;;;;;17.70;99.90;;;;;;5074434;28;20051;-72
2021/10/24 09:12:09;;;;;;;5.18;3.72;;;17.70;99.90;;;;;;5073862;28;19904;-71
2021/10/24 09:14:39;;;;;;;5.10;3.70;;;17.70;99.90;;;;;;5073225;28;20039;-71
2021/10/24 09:17:08;;;;;;;6.30;3.42;;;17.70;99.90;;;;;;5073589;28;20463;-72
2021/10/24 09:19:38;;;;;;;5.05;3.65;;;17.70;99.90;;;;;;5073716;28;20547;-71
2021/10/24 09:22:19;;;;;;;4.88;3.75;;;17.80;99.90;;;;;;5072287;28;20040;-72
2021/10/24 09:25:16;;;;;;;7.20;3.97;;;17.70;99.90;;;;;;5073677;28;20500;-72
2021/10/24 09:27:51;;;;;;;6.03;3.60;;;17.80;99.90;;;;;;5072229;28;20481;-71
2021/10/24 09:30:23;;;;;;;7.28;4.20;;;17.80;99.90;;;;;;5072307;28;20028;-72
2021/10/24 09:32:56;;;;;;;4.07;3.20;;;17.90;99.90;;;;;;5073452;28;20020;-71
2021/10/24 09:35:29;;;;;;;5.93;3.30;;;17.90;99.90;;;;;;5073464;28;20020;-71
2021/10/24 09:38:01;;;;;;;13.73;3.78;;;17.80;99.90;;;;;;5072100;28;20042;-70
2021/10/24 09:40:42;;;;;;;9.57;4.72;;;17.70;99.90;;;;;;5073388;28;20056;-70
2021/10/24 09:43:28;;;;;;;14.23;5.20;;;17.20;99.90;;;;;;5073287;28;20376;-70
2021/10/24 09:45:59;;;;;;;11.90;6.45;;;17.00;99.90;;;;;;5073334;28;20021;-69
2021/10/24 09:48:29;;;;;;;8.45;7.03;;;16.80;99.90;;;;;;5072016;28;20078;-71
2021/10/24 09:51:00;;;;;;;7.20;6.60;;;16.50;99.90;;;;;;5071922;28;20175;-71
2021/10/24 09:53:36;;;;;;;7.55;6.70;;;16.30;99.90;;;;;;5073388;28;20059;-71
2021/10/24 09:56:23;;;;;;;12.40;8.15;;;16.20;99.90;;;;;;5071842;28;20021;-73
2021/10/24 09:58:55;;;;;;;10.85;7.30;;;16.10;99.90;;;;;;5073230;28;20144;-72
2021/10/24 10:01:23;;;;;;;9.10;7.43;;;16.10;99.90;;;;;;5073005;28;20016;-70
2021/10/24 10:03:51;;;;;;;8.48;7.65;;;16.10;99.90;;;;;;5072764;28;20025;-72
2021/10/24 10:06:24;;;;;;;8.82;8.02;;;16.10;99.90;;;;;;5073004;28;20016;-71
2021/10/24 10:08:51;;;;;;;10.02;9.10;;;16.10;99.90;;;;;;5073069;28;20024;-71
2021/10/24 10:11:28;;;;;;;9.55;8.50;;;16.00;99.90;;;;;;5072940;28;20013;-70
2021/10/24 10:14:07;;;;;;;9.80;8.80;;;15.90;99.90;;;;;;5072985;28;20496;-70
2021/10/24 10:16:41;;;;;;;9.90;9.10;;;15.90;99.90;;;;;;5072993;28;20029;-71
2021/10/24 10:19:15;;;;;;;9.88;9.00;;;15.80;99.90;;;;;;5071816;28;20029;-70
2021/10/24 10:21:45;;;;;;;10.18;9.30;;;15.80;99.90;;;;;;5072995;28;20052;-71
2021/10/24 10:24:34;;;;;;;12.02;10.98;;;15.90;99.90;;;;;;5074607;28;20469;-72
2021/10/24 10:27:03;;;;;;;11.57;10.68;;;15.90;99.90;;;;;;5078252;28;20029;-71
2021/10/24 10:29:52;;;;;;;12.45;11.30;;;15.90;99.90;;;;;;5079715;28;20063;-71
2021/10/24 10:32:24;;;;;;;13.40;12.45;;;15.70;99.90;;;;;;5078295;28;20451;-71
2021/10/24 10:35:06;;;;;;;13.40;12.20;;;15.60;99.90;;;;;;5079676;28;20027;-71
2021/10/24 10:37:56;;;;;;;12.82;11.95;;;15.60;99.90;;;;;;5079579;28;20090;-71
2021/10/24 10:40:24;;;;;;;11.43;10.70;;;15.60;99.90;;;;;;5079730;28;20021;-72
2021/10/24 10:43:11;;;;;;;12.95;12.00;;;15.50;99.90;;;;;;5079512;28;20025;-71
2021/10/24 10:45:44;;;;;;;13.23;12.32;;;15.50;99.90;;;;;;5079310;28;20411;-71
2021/10/24 10:48:34;;;;;;;13.13;12.20;;;15.50;99.90;;;;;;5079601;28;20047;-70
2021/10/24 10:51:13;;;;;;;12.65;11.80;;;15.40;99.90;;;;;;5078163;28;20020;-71
2021/10/24 10:53:46;;;;;;;13.23;12.32;;;15.40;99.90;;;;;;5079453;28;20032;-72
2021/10/24 10:56:16;;;;;;;13.40;12.60;;;15.30;99.90;;;;;;5078325;28;20392;-72
2021/10/24 10:58:46;;;;;;;13.30;12.25;;;15.30;99.90;;;;;;5079543;28;20046;-72
2021/10/24 11:01:31;;;;;;;13.30;12.10;;;15.30;99.90;;;;;;5079404;28;20444;-71
2021/10/24 11:04:09;;;;;;;13.65;12.48;;;15.40;99.90;;;;;;5079351;28;20020;-72
2021/10/24 11:06:36;;;;;;;13.80;12.90;;;15.40;99.90;;;;;;5079483;28;20127;-72
2021/10/24 11:09:12;;;;;;;13.20;12.35;;;15.40;99.90;;;;;;5079463;28;20016;-72
2021/10/24 11:14:12;;;;;;;12.82;11.77;;;15.40;99.90;;;;;;5079692;28;20029;-72
2021/10/24 11:16:40;;;;;;;12.30;11.52;;;15.30;99.90;;;;;;5079080;28;20477;-72
2021/10/24 11:19:29;;;;;;;12.38;11.75;;;15.40;99.90;;;;;;5079274;28;20370;-72
2021/10/24 11:22:02;;;;;;;12.25;11.25;;;15.30;99.90;;;;;;5079017;28;20027;-72
2021/10/24 11:24:54;;;;;;;12.85;11.85;;;15.30;99.90;;;;;;5077856;28;20025;-72
2021/10/24 11:27:32;;;;;;;12.73;11.85;;;15.30;99.90;;;;;;5079249;28;20020;-72
2021/10/24 11:30:08;;;;;;;12.40;11.48;;;15.20;99.90;;;;;;5079290;28;20021;-72
2021/10/24 11:32:40;;;;;;;13.18;12.23;;;15.10;99.90;;;;;;5078897;28;20182;-72
2021/10/24 11:35:13;;;;;;;13.00;11.93;;;15.10;99.90;;;;;;5078925;28;20017;-72
2021/10/24 11:37:52;;;;;;;13.15;12.20;;;15.10;99.90;;;;;;5073864;28;20020;-72
2021/10/24 11:40:24;;;;;;;12.52;11.73;;;15.10;99.90;;;;;;5074635;28;20031;-72
2021/10/24 11:43:13;;;;;;;15.23;13.95;;;15.10;99.90;;;;;;5074376;28;20027;-72
2021/10/24 11:45:54;;;;;;;14.80;13.63;;;15.30;99.90;;;;;;5075809;28;20025;-72
2021/10/24 11:48:25;;;;;;;15.40;14.00;;;15.40;99.90;;;;;;5075776;28;20078;-72
2021/10/24 11:51:03;;;;;;;15.38;14.27;;;15.40;99.90;;;;;;5075843;28;20028;-72
2021/10/24 11:53:32;;;;;;;15.63;14.45;;;15.40;99.90;;;;;;5075662;28;20470;-72
2021/10/24 11:56:03;;;;;;;15.02;14.23;;;15.30;99.90;;;;;;5075759;28;20021;-72
2021/10/24 12:01:26;;;;;;;14.82;13.80;;;15.30;99.90;;;;;;5075785;28;20028;-71
2021/10/24 12:04:00;;;;;;;15.13;14.15;;;15.30;99.90;;;;;;5075332;28;20051;-71
2021/10/24 12:07:03;;;;;;;15.05;14.00;;;15.20;99.90;;;;;;5075510;28;20103;-72
2021/10/24 12:09:41;;;;;;;14.90;13.77;;;15.20;99.90;;;;;;5075344;28;20527;-72
2021/10/24 12:12:20;;;;;;;14.63;13.73;;;15.20;99.90;;;;;;5075273;28;20107;-71
2021/10/24 12:14:47;;;;;;;14.95;14.10;;;15.10;99.90;;;;;;5073939;28;20056;-73
2021/10/24 12:17:20;;;;;;;15.10;14.13;;;15.00;99.90;;;;;;5075126;28;20443;-72
2021/10/24 12:19:49;;;;;;;14.55;13.63;;;14.90;99.90;;;;;;5075253;28;20024;-72
2021/10/24 12:22:18;;;;;;;14.98;13.80;;;14.90;99.90;;;;;;5075169;28;20036;-72
2021/10/24 12:24:51;;;;;;;14.70;13.50;;;14.90;99.90;;;;;;5075118;28;20531;-72
2021/10/24 12:27:33;;;;;;;14.75;13.77;;;14.90;99.90;;;;;;5073748;28;20020;-72
2021/10/24 12:30:18;;;;;;;14.40;13.48;;;14.90;99.90;;;;;;5074965;28;20099;-72
2021/10/24 12:33:11;;;;;;;15.38;14.30;;;14.80;99.90;;;;;;5074968;28;20036;-72
2021/10/24 12:35:49;;;;;;;15.15;14.15;;;14.90;99.90;;;;;;5073537;28;20020;-72
2021/10/24 12:38:17;;;;;;;15.10;14.25;;;15.00;99.90;;;;;;5074739;28;20035;-71
2021/10/24 12:40:57;;;;;;;15.93;14.75;;;14.90;99.90;;;;;;5074672;28;20078;-71
2021/10/24 12:43:28;;;;;;;15.73;14.70;;;15.00;99.90;;;;;;5073291;28;20082;-71
2021/10/24 12:46:03;;;;;;;15.75;14.50;;;15.10;99.90;;;;;;5074595;28;20366;-71
2021/10/24 12:48:45;;;;;;;15.52;14.45;;;15.10;99.90;;;;;;5073714;28;20013;-72
2021/10/24 12:51:30;;;;;;;15.55;14.45;;;15.10;99.90;;;;;;5074547;28;20016;-71
2021/10/24 12:54:00;;;;;;;14.90;13.90;;;14.90;99.90;;;;;;5073116;28;20031;-73
2021/10/24 12:56:29;;;;;;;15.18;14.27;;;15.00;99.90;;;;;;5074341;28;20027;-74
2021/10/24 12:58:56;;;;;;;14.02;13.23;;;15.00;99.90;;;;;;5074284;28;20098;-72
2021/10/24 13:01:28;;;;;;;14.27;13.38;;;14.90;99.90;;;;;;5074408;28;20017;-72